sensor_id;sensor_type;location;lat;lon;timestamp;pressure;altitude;pressure_sealevel;temperature;humidity
42887;BME280;29032;56.028;92.904;2023-03-12T00:00:16;98518.75;;;1.82;29.22
42887;BME280;29032;56.028;92.904;2023-03-12T00:05:20;98510.69;;;1.84;29.48
42887;BME280;29032;56.028;92.904;2023-03-12T00:10:22;98511.53;;;1.74;29.42
42887;BME280;29032;56.028;92.904;2023-03-12T00:15:24;98493.56;;;1.67;30.50
42887;BME280;29032;56.028;92.904;2023-03-12T00:20:28;98484.25;;;1.70;30.82
42887;BME280;29032;56.028;92.904;2023-03-12T00:25:30;98465.50;;;1.68;32.20
42887;BME280;29032;56.028;92.904;2023-03-12T00:30:32;98453.13;;;1.75;32.98
42887;BME280;29032;56.028;92.904;2023-03-12T00:35:36;98429.91;;;1.89;33.74
42887;BME280;29032;56.028;92.904;2023-03-12T00:40:38;98419.53;;;1.95;33.89
42887;BME280;29032;56.028;92.904;2023-03-12T00:45:40;98422.16;;;2.07;34.12
42887;BME280;29032;56.028;92.904;2023-03-12T00:50:44;98419.78;;;2.16;35.83
42887;BME280;29032;56.028;92.904;2023-03-12T00:55:46;98401.50;;;2.13;37.10
42887;BME280;29032;56.028;92.904;2023-03-12T01:00:48;98389.34;;;2.22;36.53
42887;BME280;29032;56.028;92.904;2023-03-12T01:05:52;98386.69;;;2.35;38.42
42887;BME280;29032;56.028;92.904;2023-03-12T01:10:54;98362.22;;;2.26;39.10
42887;BME280;29032;56.028;92.904;2023-03-12T01:15:56;98380.66;;;2.18;40.13
42887;BME280;29032;56.028;92.904;2023-03-12T01:21:00;98355.66;;;2.10;40.73
42887;BME280;29032;56.028;92.904;2023-03-12T01:26:03;98345.00;;;2.01;40.91
42887;BME280;29032;56.028;92.904;2023-03-12T01:31:08;98343.56;;;2.13;41.09
42887;BME280;29032;56.028;92.904;2023-03-12T01:36:17;98331.19;;;2.20;39.81
42887;BME280;29032;56.028;92.904;2023-03-12T01:41:20;98322.47;;;2.16;41.33
42887;BME280;29032;56.028;92.904;2023-03-12T01:46:26;98322.69;;;2.18;41.65
42887;BME280;29032;56.028;92.904;2023-03-12T01:51:34;98302.84;;;2.19;41.47
42887;BME280;29032;56.028;92.904;2023-03-12T01:56:38;98311.88;;;2.39;41.18
42887;BME280;29032;56.028;92.904;2023-03-12T02:01:41;98306.69;;;2.48;41.69
42887;BME280;29032;56.028;92.904;2023-03-12T02:06:50;98307.25;;;2.60;41.21
42887;BME280;29032;56.028;92.904;2023-03-12T02:11:54;98302.03;;;2.57;41.28
42887;BME280;29032;56.028;92.904;2023-03-12T02:16:56;98305.44;;;2.63;41.74
42887;BME280;29032;56.028;92.904;2023-03-12T02:22:01;98301.84;;;2.68;41.81
42887;BME280;29032;56.028;92.904;2023-03-12T02:27:05;98301.84;;;2.68;42.61
42887;BME280;29032;56.028;92.904;2023-03-12T02:32:14;98277.41;;;2.59;43.18
42887;BME280;29032;56.028;92.904;2023-03-12T02:37:18;98266.59;;;2.61;43.23
42887;BME280;29032;56.028;92.904;2023-03-12T02:42:23;98262.69;;;2.83;43.83
42887;BME280;29032;56.028;92.904;2023-03-12T02:47:25;98250.88;;;2.69;44.59
42887;BME280;29032;56.028;92.904;2023-03-12T02:52:28;98241.94;;;2.49;44.83
42887;BME280;29032;56.028;92.904;2023-03-12T02:57:32;98240.75;;;2.45;45.62
42887;BME280;29032;56.028;92.904;2023-03-12T03:02:35;98241.94;;;2.49;45.55
42887;BME280;29032;56.028;92.904;2023-03-12T03:07:37;98244.72;;;2.63;45.36
42887;BME280;29032;56.028;92.904;2023-03-12T03:12:42;98240.78;;;2.71;45.34
42887;BME280;29032;56.028;92.904;2023-03-12T03:17:44;98229.41;;;2.62;46.45
42887;BME280;29032;56.028;92.904;2023-03-12T03:22:46;98226.66;;;2.62;48.14
42887;BME280;29032;56.028;92.904;2023-03-12T03:27:50;98244.16;;;2.51;50.22
42887;BME280;29032;56.028;92.904;2023-03-12T03:32:52;98225.91;;;2.16;51.15
42887;BME280;29032;56.028;92.904;2023-03-12T03:37:54;98228.63;;;2.03;51.43
42887;BME280;29032;56.028;92.904;2023-03-12T03:42:58;98217.56;;;1.89;52.06
42887;BME280;29032;56.028;92.904;2023-03-12T03:48:01;98227.63;;;1.68;52.20
42887;BME280;29032;56.028;92.904;2023-03-12T03:53:04;98245.22;;;1.46;53.87
42887;BME280;29032;56.028;92.904;2023-03-12T03:58:07;98241.72;;;1.46;53.52
42887;BME280;29032;56.028;92.904;2023-03-12T04:03:10;98238.69;;;1.30;54.45
42887;BME280;29032;56.028;92.904;2023-03-12T04:08:12;98255.25;;;1.25;55.42
42887;BME280;29032;56.028;92.904;2023-03-12T04:13:16;98265.78;;;1.26;55.81
42887;BME280;29032;56.028;92.904;2023-03-12T04:18:19;98279.47;;;1.13;56.80
42887;BME280;29032;56.028;92.904;2023-03-12T04:23:21;98279.31;;;1.05;57.04
42887;BME280;29032;56.028;92.904;2023-03-12T04:28:25;98274.53;;;1.06;57.79
42887;BME280;29032;56.028;92.904;2023-03-12T04:33:29;98277.50;;;1.08;57.69
42887;BME280;29032;56.028;92.904;2023-03-12T04:38:33;98282.56;;;1.04;57.16
42887;BME280;29032;56.028;92.904;2023-03-12T04:43:37;98266.16;;;0.93;58.52
42887;BME280;29032;56.028;92.904;2023-03-12T04:48:39;98285.09;;;1.02;58.20
42887;BME280;29032;56.028;92.904;2023-03-12T04:53:42;98283.59;;;1.01;58.38
42887;BME280;29032;56.028;92.904;2023-03-12T04:58:47;98292.31;;;1.05;57.79
42887;BME280;29032;56.028;92.904;2023-03-12T05:03:50;98298.63;;;1.00;57.73
42887;BME280;29032;56.028;92.904;2023-03-12T05:08:53;98309.88;;;1.02;57.79
42887;BME280;29032;56.028;92.904;2023-03-12T05:13:57;98314.81;;;1.09;57.81
42887;BME280;29032;56.028;92.904;2023-03-12T05:18:59;98320.09;;;1.07;57.37
42887;BME280;29032;56.028;92.904;2023-03-12T05:24:05;98318.06;;;1.07;57.53
42887;BME280;29032;56.028;92.904;2023-03-12T05:29:09;98320.78;;;1.13;57.08
42887;BME280;29032;56.028;92.904;2023-03-12T05:34:11;98315.50;;;1.15;56.77
42887;BME280;29032;56.028;92.904;2023-03-12T05:39:17;98320.47;;;1.16;56.57
42887;BME280;29032;56.028;92.904;2023-03-12T05:44:22;98310.09;;;1.28;55.82
42887;BME280;29032;56.028;92.904;2023-03-12T05:49:27;98300.91;;;1.20;55.80
42887;BME280;29032;56.028;92.904;2023-03-12T05:54:31;98299.25;;;1.11;56.19
42887;BME280;29032;56.028;92.904;2023-03-12T05:59:35;98289.44;;;1.16;55.73
42887;BME280;29032;56.028;92.904;2023-03-12T06:04:38;98284.97;;;1.13;55.24
42887;BME280;29032;56.028;92.904;2023-03-12T06:09:40;98299.75;;;1.10;55.70
42887;BME280;29032;56.028;92.904;2023-03-12T06:14:45;98307.97;;;1.15;55.17
42887;BME280;29032;56.028;92.904;2023-03-12T06:19:50;98328.47;;;1.20;55.25
42887;BME280;29032;56.028;92.904;2023-03-12T06:24:53;98319.72;;;1.16;55.02
42887;BME280;29032;56.028;92.904;2023-03-12T06:29:57;98331.44;;;1.22;55.52
42887;BME280;29032;56.028;92.904;2023-03-12T06:34:59;98333.97;;;1.20;55.71
42887;BME280;29032;56.028;92.904;2023-03-12T06:40:01;98337.63;;;1.28;54.96
42887;BME280;29032;56.028;92.904;2023-03-12T06:45:07;98338.06;;;1.32;55.22
42887;BME280;29032;56.028;92.904;2023-03-12T06:50:10;98340.66;;;1.25;55.48
42887;BME280;29032;56.028;92.904;2023-03-12T06:55:12;98352.50;;;1.20;55.83
42887;BME280;29032;56.028;92.904;2023-03-12T07:00:16;98371.28;;;1.21;56.40
42887;BME280;29032;56.028;92.904;2023-03-12T07:05:19;98372.53;;;1.20;55.30
42887;BME280;29032;56.028;92.904;2023-03-12T07:10:21;98373.81;;;1.19;55.54
42887;BME280;29032;56.028;92.904;2023-03-12T07:15:25;98380.06;;;1.20;55.33
42887;BME280;29032;56.028;92.904;2023-03-12T07:20:27;98392.63;;;1.15;55.00
42887;BME280;29032;56.028;92.904;2023-03-12T07:25:29;98372.19;;;1.05;55.13
42887;BME280;29032;56.028;92.904;2023-03-12T07:30:33;98405.34;;;1.18;54.58
42887;BME280;29032;56.028;92.904;2023-03-12T07:35:36;98399.38;;;1.14;54.57
42887;BME280;29032;56.028;92.904;2023-03-12T07:40:38;98411.19;;;1.09;54.76
42887;BME280;29032;56.028;92.904;2023-03-12T07:45:41;98426.72;;;1.12;54.98
42887;BME280;29032;56.028;92.904;2023-03-12T07:50:44;98423.44;;;1.13;54.75
42887;BME280;29032;56.028;92.904;2023-03-12T07:55:46;98418.19;;;1.10;55.00
42887;BME280;29032;56.028;92.904;2023-03-12T08:00:50;98423.44;;;1.13;54.79
42887;BME280;29032;56.028;92.904;2023-03-12T08:05:56;98420.88;;;1.21;54.53
42887;BME280;29032;56.028;92.904;2023-03-12T08:10:59;98431.34;;;1.23;54.04
42887;BME280;29032;56.028;92.904;2023-03-12T08:16:04;98438.09;;;1.27;54.32
42887;BME280;29032;56.028;92.904;2023-03-12T08:21:06;98433.59;;;1.24;54.88
42887;BME280;29032;56.028;92.904;2023-03-12T08:26:08;98428.56;;;1.28;54.01
42887;BME280;29032;56.028;92.904;2023-03-12T08:31:12;98434.97;;;1.36;53.83
42887;BME280;29032;56.028;92.904;2023-03-12T08:36:14;98435.50;;;1.35;53.49
42887;BME280;29032;56.028;92.904;2023-03-12T08:41:16;98435.47;;;1.40;53.44
42887;BME280;29032;56.028;92.904;2023-03-12T08:46:20;98460.94;;;1.47;53.24
42887;BME280;29032;56.028;92.904;2023-03-12T08:51:22;98468.97;;;1.44;53.39
42887;BME280;29032;56.028;92.904;2023-03-12T08:56:24;98480.47;;;1.49;53.52
42887;BME280;29032;56.028;92.904;2023-03-12T09:01:29;98490.94;;;1.56;53.05
42887;BME280;29032;56.028;92.904;2023-03-12T09:06:31;98488.38;;;1.58;52.75
42887;BME280;29032;56.028;92.904;2023-03-12T09:11:35;98496.63;;;1.63;52.87
42887;BME280;29032;56.028;92.904;2023-03-12T09:16:39;98508.56;;;1.71;52.98
42887;BME280;29032;56.028;92.904;2023-03-12T09:21:41;98509.88;;;1.65;52.99
42887;BME280;29032;56.028;92.904;2023-03-12T09:26:43;98507.41;;;1.61;52.43
42887;BME280;29032;56.028;92.904;2023-03-12T09:31:47;98517.91;;;1.63;53.06
42887;BME280;29032;56.028;92.904;2023-03-12T09:36:49;98532.78;;;1.54;52.74
42887;BME280;29032;56.028;92.904;2023-03-12T09:41:51;98536.03;;;1.53;53.35
42887;BME280;29032;56.028;92.904;2023-03-12T09:46:56;98549.75;;;1.64;52.45
42887;BME280;29032;56.028;92.904;2023-03-12T09:52:02;98558.47;;;1.68;52.76
42887;BME280;29032;56.028;92.904;2023-03-12T09:57:11;98564.25;;;1.64;51.83
42887;BME280;29032;56.028;92.904;2023-03-12T10:02:35;98571.00;;;1.69;51.45
42887;BME280;29032;56.028;92.904;2023-03-12T10:07:47;98588.94;;;1.51;51.89
42887;BME280;29032;56.028;92.904;2023-03-12T10:13:04;98585.09;;;1.30;52.74
42887;BME280;29032;56.028;92.904;2023-03-12T10:18:19;98593.00;;;1.44;52.93
42887;BME280;29032;56.028;92.904;2023-03-12T10:23:35;98610.31;;;1.39;53.31
42887;BME280;29032;56.028;92.904;2023-03-12T10:28:43;98613.38;;;1.30;53.03
42887;BME280;29032;56.028;92.904;2023-03-12T10:33:50;98619.84;;;1.38;53.38
42887;BME280;29032;56.028;92.904;2023-03-12T10:38:52;98623.66;;;1.30;53.87
42887;BME280;29032;56.028;92.904;2023-03-12T10:43:58;98636.91;;;1.31;53.98
42887;BME280;29032;56.028;92.904;2023-03-12T10:49:23;98632.09;;;1.43;52.63
42887;BME280;29032;56.028;92.904;2023-03-12T10:54:30;98643.97;;;1.27;53.74
42887;BME280;29032;56.028;92.904;2023-03-12T10:59:34;98637.75;;;1.21;53.31
42887;BME280;29032;56.028;92.904;2023-03-12T11:04:38;98640.31;;;1.13;53.62
42887;BME280;29032;56.028;92.904;2023-03-12T11:09:40;98655.16;;;0.99;53.18
42887;BME280;29032;56.028;92.904;2023-03-12T11:14:45;98641.63;;;0.95;53.79
42887;BME280;29032;56.028;92.904;2023-03-12T11:19:48;98653.16;;;0.94;53.83
42887;BME280;29032;56.028;92.904;2023-03-12T11:25:01;98663.09;;;1.08;52.68
42887;BME280;29032;56.028;92.904;2023-03-12T11:30:05;98661.88;;;1.03;52.91
42887;BME280;29032;56.028;92.904;2023-03-12T11:35:11;98662.63;;;1.04;53.34
42887;BME280;29032;56.028;92.904;2023-03-12T11:40:20;98679.00;;;0.85;54.34
42887;BME280;29032;56.028;92.904;2023-03-12T11:45:33;98678.03;;;0.71;54.76
42887;BME280;29032;56.028;92.904;2023-03-12T11:50:49;98689.06;;;0.66;54.33
42887;BME280;29032;56.028;92.904;2023-03-12T11:56:08;98709.34;;;0.57;54.12
42887;BME280;29032;56.028;92.904;2023-03-12T12:01:19;98742.84;;;0.61;53.36
42887;BME280;29032;56.028;92.904;2023-03-12T12:06:27;98754.44;;;0.20;56.53
42887;BME280;29032;56.028;92.904;2023-03-12T12:11:41;98760.59;;;-0.18;57.23
42887;BME280;29032;56.028;92.904;2023-03-12T12:17:00;98777.81;;;-0.35;56.34
42887;BME280;29032;56.028;92.904;2023-03-12T12:22:19;98806.72;;;-0.56;56.31
42887;BME280;29032;56.028;92.904;2023-03-12T12:27:25;98826.41;;;-0.69;56.38
42887;BME280;29032;56.028;92.904;2023-03-12T12:32:36;98868.09;;;-0.70;55.15
42887;BME280;29032;56.028;92.904;2023-03-12T12:37:47;98865.28;;;-0.82;55.84
42887;BME280;29032;56.028;92.904;2023-03-12T12:42:57;98901.38;;;-1.32;57.61
42887;BME280;29032;56.028;92.904;2023-03-12T12:48:06;98917.72;;;-1.43;57.47
42887;BME280;29032;56.028;92.904;2023-03-12T12:53:20;98927.56;;;-1.82;56.86
42887;BME280;29032;56.028;92.904;2023-03-12T12:58:39;98935.13;;;-1.98;56.81
42887;BME280;29032;56.028;92.904;2023-03-12T13:03:45;98943.03;;;-1.79;56.33
42887;BME280;29032;56.028;92.904;2023-03-12T13:09:01;98962.00;;;-1.55;55.91
42887;BME280;29032;56.028;92.904;2023-03-12T13:14:35;98975.34;;;-1.43;55.47
42887;BME280;29032;56.028;92.904;2023-03-12T13:19:39;98986.31;;;-1.43;55.21
42887;BME280;29032;56.028;92.904;2023-03-12T13:24:47;99013.13;;;-1.32;54.92
42887;BME280;29032;56.028;92.904;2023-03-12T13:29:52;99027.53;;;-1.37;55.87
42887;BME280;29032;56.028;92.904;2023-03-12T13:34:56;99045.22;;;-1.38;55.76
42887;BME280;29032;56.028;92.904;2023-03-12T13:40:00;99064.94;;;-1.40;55.91
42887;BME280;29032;56.028;92.904;2023-03-12T13:45:22;99074.66;;;-1.39;54.86
42887;BME280;29032;56.028;92.904;2023-03-12T13:50:26;99082.16;;;-1.60;54.24
42887;BME280;29032;56.028;92.904;2023-03-12T13:55:31;99108.81;;;-1.60;53.21
42887;BME280;29032;56.028;92.904;2023-03-12T14:00:38;99117.69;;;-1.86;51.62
42887;BME280;29032;56.028;92.904;2023-03-12T14:05:47;99159.66;;;-2.29;53.29
42887;BME280;29032;56.028;92.904;2023-03-12T14:11:02;99175.00;;;-2.76;52.78
42887;BME280;29032;56.028;92.904;2023-03-12T14:16:15;99166.53;;;-3.17;54.99
42887;BME280;29032;56.028;92.904;2023-03-12T14:21:20;99184.09;;;-3.33;54.07
42887;BME280;29032;56.028;92.904;2023-03-12T14:26:29;99196.16;;;-3.15;52.79
42887;BME280;29032;56.028;92.904;2023-03-12T14:31:32;99199.59;;;-3.06;50.98
42887;BME280;29032;56.028;92.904;2023-03-12T14:36:38;99226.25;;;-2.91;50.24
42887;BME280;29032;56.028;92.904;2023-03-12T14:41:51;99245.13;;;-2.93;50.08
42887;BME280;29032;56.028;92.904;2023-03-12T14:46:57;99254.38;;;-3.15;49.95
42887;BME280;29032;56.028;92.904;2023-03-12T14:52:00;99275.72;;;-3.28;49.84
42887;BME280;29032;56.028;92.904;2023-03-12T14:57:03;99298.00;;;-3.54;48.56
42887;BME280;29032;56.028;92.904;2023-03-12T15:02:12;99302.38;;;-3.80;49.40
42887;BME280;29032;56.028;92.904;2023-03-12T15:07:18;99323.63;;;-3.84;48.58
42887;BME280;29032;56.028;92.904;2023-03-12T15:12:25;99345.97;;;-3.86;49.49
42887;BME280;29032;56.028;92.904;2023-03-12T15:17:30;99364.91;;;-3.82;49.98
42887;BME280;29032;56.028;92.904;2023-03-12T15:22:33;99373.00;;;-4.06;48.63
42887;BME280;29032;56.028;92.904;2023-03-12T15:27:37;99383.31;;;-3.92;48.14
42887;BME280;29032;56.028;92.904;2023-03-12T15:32:39;99400.63;;;-3.95;47.88
42887;BME280;29032;56.028;92.904;2023-03-12T15:37:49;99405.63;;;-3.84;48.25
42887;BME280;29032;56.028;92.904;2023-03-12T15:42:54;99413.22;;;-3.97;48.08
42887;BME280;29032;56.028;92.904;2023-03-12T15:47:56;99438.44;;;-3.84;47.63
42887;BME280;29032;56.028;92.904;2023-03-12T15:53:01;99458.78;;;-3.67;48.19
42887;BME280;29032;56.028;92.904;2023-03-12T15:58:26;99466.03;;;-3.55;48.77
42887;BME280;29032;56.028;92.904;2023-03-12T16:03:29;99478.97;;;-3.55;49.26
42887;BME280;29032;56.028;92.904;2023-03-12T16:08:35;99474.69;;;-3.47;48.45
42887;BME280;29032;56.028;92.904;2023-03-12T16:13:41;99467.41;;;-3.50;46.63
42887;BME280;29032;56.028;92.904;2023-03-12T16:18:43;99521.50;;;-3.36;45.57
42887;BME280;29032;56.028;92.904;2023-03-12T16:23:46;99524.38;;;-3.48;42.72
42887;BME280;29032;56.028;92.904;2023-03-12T16:28:49;99543.66;;;-3.61;43.05
42887;BME280;29032;56.028;92.904;2023-03-12T16:33:51;99548.09;;;-3.64;43.55
42887;BME280;29032;56.028;92.904;2023-03-12T16:38:53;99567.09;;;-3.60;42.67
42887;BME280;29032;56.028;92.904;2023-03-12T16:43:57;99576.94;;;-3.72;42.85
42887;BME280;29032;56.028;92.904;2023-03-12T16:48:59;99594.69;;;-3.86;43.12
42887;BME280;29032;56.028;92.904;2023-03-12T16:54:02;99585.06;;;-3.99;43.28
42887;BME280;29032;56.028;92.904;2023-03-12T16:59:10;99611.66;;;-4.00;43.37
42887;BME280;29032;56.028;92.904;2023-03-12T17:04:14;99623.31;;;-4.09;42.26
42887;BME280;29032;56.028;92.904;2023-03-12T17:09:16;99623.41;;;-4.21;42.08
42887;BME280;29032;56.028;92.904;2023-03-12T17:14:21;99641.03;;;-4.13;41.52
42887;BME280;29032;56.028;92.904;2023-03-12T17:19:23;99653.00;;;-4.20;41.54
42887;BME280;29032;56.028;92.904;2023-03-12T17:24:26;99655.25;;;-4.27;41.07
42887;BME280;29032;56.028;92.904;2023-03-12T17:29:29;99674.19;;;-4.33;40.44
42887;BME280;29032;56.028;92.904;2023-03-12T17:34:31;99683.41;;;-4.40;40.69
42887;BME280;29032;56.028;92.904;2023-03-12T17:39:34;99698.41;;;-4.44;40.40
42887;BME280;29032;56.028;92.904;2023-03-12T17:44:38;99718.19;;;-4.53;40.14
42887;BME280;29032;56.028;92.904;2023-03-12T17:49:40;99726.72;;;-4.51;40.38
42887;BME280;29032;56.028;92.904;2023-03-12T17:54:42;99730.00;;;-4.34;40.27
42887;BME280;29032;56.028;92.904;2023-03-12T17:59:46;99740.69;;;-4.27;39.75
42887;BME280;29032;56.028;92.904;2023-03-12T18:04:48;99743.09;;;-4.29;39.32
42887;BME280;29032;56.028;92.904;2023-03-12T18:09:50;99771.28;;;-4.32;39.99
42887;BME280;29032;56.028;92.904;2023-03-12T18:14:53;99783.13;;;-4.35;40.19
42887;BME280;29032;56.028;92.904;2023-03-12T18:19:56;99799.19;;;-4.37;40.09
42887;BME280;29032;56.028;92.904;2023-03-12T18:24:58;99816.69;;;-4.47;40.43
42887;BME280;29032;56.028;92.904;2023-03-12T18:30:02;99848.84;;;-4.51;41.97
42887;BME280;29032;56.028;92.904;2023-03-12T18:35:05;99856.88;;;-4.95;45.64
42887;BME280;29032;56.028;92.904;2023-03-12T18:40:09;99853.63;;;-5.41;47.66
42887;BME280;29032;56.028;92.904;2023-03-12T18:45:13;99862.22;;;-5.30;47.06
42887;BME280;29032;56.028;92.904;2023-03-12T18:50:16;99867.00;;;-5.59;48.29
42887;BME280;29032;56.028;92.904;2023-03-12T18:55:18;99884.03;;;-5.55;48.19
42887;BME280;29032;56.028;92.904;2023-03-12T19:00:22;99915.19;;;-5.69;49.55
42887;BME280;29032;56.028;92.904;2023-03-12T19:05:24;99921.03;;;-6.12;54.13
42887;BME280;29032;56.028;92.904;2023-03-12T19:10:26;99946.75;;;-6.46;57.09
42887;BME280;29032;56.028;92.904;2023-03-12T19:15:30;99941.53;;;-6.89;61.52
42887;BME280;29032;56.028;92.904;2023-03-12T19:20:32;99957.38;;;-6.68;60.40
42887;BME280;29032;56.028;92.904;2023-03-12T19:25:34;99961.03;;;-6.58;59.87
42887;BME280;29032;56.028;92.904;2023-03-12T19:30:38;99976.69;;;-6.46;57.82
42887;BME280;29032;56.028;92.904;2023-03-12T19:35:40;99989.69;;;-6.53;56.94
42887;BME280;29032;56.028;92.904;2023-03-12T19:40:47;99998.63;;;-6.37;55.59
42887;BME280;29032;56.028;92.904;2023-03-12T19:45:51;100016.31;;;-6.29;55.68
42887;BME280;29032;56.028;92.904;2023-03-12T19:50:54;100022.13;;;-6.26;56.70
42887;BME280;29032;56.028;92.904;2023-03-12T19:55:56;100042.56;;;-6.18;58.12
42887;BME280;29032;56.028;92.904;2023-03-12T20:01:00;100058.03;;;-6.84;63.89
42887;BME280;29032;56.028;92.904;2023-03-12T20:06:02;100079.63;;;-7.36;65.38
42887;BME280;29032;56.028;92.904;2023-03-12T20:11:06;100086.13;;;-7.74;65.67
42887;BME280;29032;56.028;92.904;2023-03-12T20:16:09;100108.00;;;-7.84;66.90
42887;BME280;29032;56.028;92.904;2023-03-12T20:21:12;100116.78;;;-8.00;66.42
42887;BME280;29032;56.028;92.904;2023-03-12T20:26:14;100125.25;;;-7.95;65.76
42887;BME280;29032;56.028;92.904;2023-03-12T20:31:17;100143.16;;;-7.97;66.39
42887;BME280;29032;56.028;92.904;2023-03-12T20:36:20;100163.16;;;-7.87;65.62
42887;BME280;29032;56.028;92.904;2023-03-12T20:41:22;100172.50;;;-7.65;63.25
42887;BME280;29032;56.028;92.904;2023-03-12T20:46:25;100182.81;;;-7.53;61.03
42887;BME280;29032;56.028;92.904;2023-03-12T20:51:28;100180.97;;;-7.36;57.87
42887;BME280;29032;56.028;92.904;2023-03-12T20:56:30;100189.19;;;-7.16;56.43
42887;BME280;29032;56.028;92.904;2023-03-12T21:01:33;100191.00;;;-7.09;54.64
42887;BME280;29032;56.028;92.904;2023-03-12T21:06:36;100210.25;;;-7.00;53.92
42887;BME280;29032;56.028;92.904;2023-03-12T21:11:38;100213.84;;;-6.84;53.02
42887;BME280;29032;56.028;92.904;2023-03-12T21:16:41;100214.78;;;-6.70;51.91
42887;BME280;29032;56.028;92.904;2023-03-12T21:21:43;100229.53;;;-6.71;51.25
42887;BME280;29032;56.028;92.904;2023-03-12T21:26:45;100232.84;;;-6.60;50.93
42887;BME280;29032;56.028;92.904;2023-03-12T21:31:49;100252.88;;;-6.70;49.11
42887;BME280;29032;56.028;92.904;2023-03-12T21:36:51;100266.09;;;-6.72;48.89
42887;BME280;29032;56.028;92.904;2023-03-12T21:41:53;100281.88;;;-6.84;49.76
42887;BME280;29032;56.028;92.904;2023-03-12T21:46:57;100295.94;;;-6.89;49.89
42887;BME280;29032;56.028;92.904;2023-03-12T21:51:59;100297.75;;;-7.29;50.60
42887;BME280;29032;56.028;92.904;2023-03-12T21:57:01;100314.22;;;-7.40;51.36
42887;BME280;29032;56.028;92.904;2023-03-12T22:02:06;100312.22;;;-7.35;51.89
42887;BME280;29032;56.028;92.904;2023-03-12T22:07:08;100327.63;;;-7.02;50.77
42887;BME280;29032;56.028;92.904;2023-03-12T22:12:10;100328.13;;;-6.84;48.44
42887;BME280;29032;56.028;92.904;2023-03-12T22:17:14;100341.59;;;-6.76;47.32
42887;BME280;29032;56.028;92.904;2023-03-12T22:22:16;100344.78;;;-6.81;46.05
42887;BME280;29032;56.028;92.904;2023-03-12T22:27:18;100337.22;;;-6.94;45.37
42887;BME280;29032;56.028;92.904;2023-03-12T22:32:21;100345.78;;;-6.95;45.19
42887;BME280;29032;56.028;92.904;2023-03-12T22:37:23;100362.25;;;-7.06;44.71
42887;BME280;29032;56.028;92.904;2023-03-12T22:42:26;100369.97;;;-7.01;45.36
42887;BME280;29032;56.028;92.904;2023-03-12T22:47:29;100383.75;;;-6.88;45.31
42887;BME280;29032;56.028;92.904;2023-03-12T22:52:33;100401.63;;;-6.87;44.44
42887;BME280;29032;56.028;92.904;2023-03-12T22:57:35;100402.50;;;-6.94;44.01
42887;BME280;29032;56.028;92.904;2023-03-12T23:02:39;100405.28;;;-6.97;44.25
42887;BME280;29032;56.028;92.904;2023-03-12T23:07:41;100417.28;;;-6.95;43.56
42887;BME280;29032;56.028;92.904;2023-03-12T23:12:44;100430.03;;;-6.92;43.25
42887;BME280;29032;56.028;92.904;2023-03-12T23:17:47;100453.81;;;-6.96;43.37
42887;BME280;29032;56.028;92.904;2023-03-12T23:22:49;100463.94;;;-6.96;42.83
42887;BME280;29032;56.028;92.904;2023-03-12T23:27:51;100482.56;;;-6.95;42.82
42887;BME280;29032;56.028;92.904;2023-03-12T23:32:55;100491.91;;;-6.96;42.57
42887;BME280;29032;56.028;92.904;2023-03-12T23:37:57;100500.19;;;-7.06;43.13
42887;BME280;29032;56.028;92.904;2023-03-12T23:42:59;100512.31;;;-7.11;42.81
42887;BME280;29032;56.028;92.904;2023-03-12T23:48:03;100529.44;;;-7.14;42.85
42887;BME280;29032;56.028;92.904;2023-03-12T23:53:05;100522.91;;;-7.20;42.88
42887;BME280;29032;56.028;92.904;2023-03-12T23:58:07;100526.00;;;-7.18;43.17
